Flight Track Log - Related Links

Times and Time Zones

All times are in EST time to prevent confusion due to time zone crossing. See the N50906 flight status page for this flight to view local times or setup timezone preferences in your user account.

Time Position Orientation Groundspeed Altitude Reporting Facility
EST Latitude Longitude Course Direction KTS MPH feet Rate Location/Type
Tue 06:08:04 PM 39.6550 -88.9044 236° Southwest 86 99 4,400  Level Chicago Center
Tue 06:09:06 PM 39.6419 -88.9297 236° Southwest 86 99 4,400  Level Chicago Center
Tue 06:10:08 PM 39.6314 -88.9558 242° Southwest 84 97 4,400  Level Chicago Center
Tue 06:11:10 PM 39.6175 -88.9814 235° Southwest 85 98 4,400  Level Chicago Center
Tue 06:12:12 PM 39.6011 -89.0047 228° Southwest 86 99 4,400  Level Chicago Center
Tue 06:13:14 PM 39.5839 -89.0358 234° Southwest 87 100 4,400 48 Level Chicago Center
Tue 06:14:16 PM 39.5692 -89.0597 231° Southwest 87 100 4,500 48 Climbing Chicago Center
Tue 06:15:18 PM 39.5550 -89.0839 233° Southwest 85 98 4,500 -48 Level Chicago Center
Tue 06:16:20 PM 39.5436 -89.1089 239° Southwest 84 97 4,400 -48 Descending Chicago Center
Tue 06:17:22 PM 39.5275 -89.1350 231° Southwest 86 99 4,400 48 Level Chicago Center
Tue 06:18:24 PM 39.5128 -89.1589 231° Southwest 87 100 4,500 48 Climbing Chicago Center
Tue 06:19:26 PM 39.4981 -89.1836 232° Southwest 86 99 4,500  Level Chicago Center
Tue 06:20:28 PM 39.4808 -89.2150 235° Southwest 87 100 4,500  Level Chicago Center
Tue 06:21:30 PM 39.4672 -89.2400 235° Southwest 87 100 4,500 48 Level Chicago Center
Tue 06:22:32 PM 39.4508 -89.2642 229° Southwest 87 100 4,600 49 Climbing Chicago Center
Tue 06:23:33 PM 39.4333 -89.2867 225° Southwest 89 102 4,600  Level Chicago Center
Tue 06:24:35 PM 39.4172 -89.3136 232° Southwest 90 104 4,600 48 Level Chicago Center
Tue 06:25:37 PM 39.4003 -89.3381 228° Southwest 91 105 4,700 97 Climbing Chicago Center
Tue 06:26:39 PM 39.3758 -89.3642 220° Southwest 94 108 4,800  Climbing Chicago Center
Tue 06:27:41 PM 39.3589 -89.3911 231° Southwest 94 108 4,700 -124 Descending Chicago Center
Tue 06:29:04 PM 39.3400 -89.4283 237° Southwest 95 109 4,500 -164 Descending Kansas City Center
Tue 06:30:07 PM 39.3222 -89.4547 229° Southwest 97 112 4,300 -48 Descending Kansas City Center
Tue 06:31:09 PM 39.3058 -89.4800 230° Southwest 94 108 4,400 48 Climbing Kansas City Center
Tue 06:32:11 PM 39.2917 -89.5111 240° Southwest 85 98 4,400 48 Level Kansas City Center
Tue 06:33:13 PM 39.2778 -89.5361 234° Southwest 86 99 4,500 97 Climbing Kansas City Center
Tue 06:34:15 PM 39.2600 -89.5578 223° Southwest 86 99 4,600 48 Climbing Kansas City Center
Tue 06:35:17 PM 39.2461 -89.5828 234° Southwest 86 99 4,600  Level Kansas City Center
Tue 06:36:19 PM 39.2303 -89.6075 230° Southwest 88 101 4,600 48 Level Kansas City Center
Tue 06:37:21 PM 39.2164 -89.6344 236° Southwest 90 104 4,700  Climbing Kansas City Center
Tue 06:38:23 PM 39.1969 -89.6650 231° Southwest 91 105 4,600 -48 Descending Kansas City Center
Tue 06:39:25 PM 39.1811 -89.6911 232° Southwest 92 106 4,600  Level Kansas City Center
Tue 06:40:27 PM 39.1661 -89.7169 233° Southwest 92 106 4,600  Level Kansas City Center
Tue 06:41:29 PM 39.1494 -89.7411 228° Southwest 90 104 4,600  Level Kansas City Center
Tue 06:42:31 PM 39.1317 -89.7642 225° Southwest 91 105 4,600  Level Kansas City Center
Tue 06:43:33 PM 39.1167 -89.7886 232° Southwest 88 101 4,600  Level Kansas City Center
Tue 06:44:35 PM 39.0978 -89.8175 230° Southwest 88 101 4,600 48 Level Kansas City Center
Tue 06:45:37 PM 39.0819 -89.8414 230° Southwest 88 101 4,700  Climbing Kansas City Center
Tue 06:46:39 PM 39.0664 -89.8667 232° Southwest 90 104 4,600 -48 Descending Kansas City Center
Tue 06:47:41 PM 39.0497 -89.8928 231° Southwest 95 109 4,600  Level Kansas City Center
Tue 06:48:43 PM 39.0350 -89.9167 232° Southwest 87 100 4,600 -48 Level Kansas City Center
Tue 06:49:45 PM 39.0150 -89.9458 229° Southwest 91 105 4,500 -48 Descending Kansas City Center
Tue 06:50:47 PM 38.9989 -89.9700 229° Southwest 88 101 4,500  Level Kansas City Center
Tue 06:51:50 PM 38.9825 -89.9942 229° Southwest 90 104 4,500  Level Kansas City Center
Tue 06:52:52 PM 38.9669 -90.0192 231° Southwest 90 104 4,500 48 Level Kansas City Center
Tue 06:53:54 PM 38.9525 -90.0428 232° Southwest 88 101 4,600  Climbing Kansas City Center
Tue 06:54:56 PM 38.9378 -90.0683 233° Southwest 87 100 4,500 -48 Descending Kansas City Center
Tue 06:55:58 PM 38.9186 -90.0989 231° Southwest 90 104 4,500  Level Kansas City Center
Tue 06:57:00 PM 38.9011 -90.1225 226° Southwest 91 105 4,500 -48 Level Kansas City Center
Tue 06:58:02 PM 38.8842 -90.1494 231° Southwest 94 108 4,400 -48 Descending Kansas City Center
Tue 06:59:04 PM 38.8675 -90.1733 228° Southwest 92 106 4,400  Level Kansas City Center
Tue 07:00:06 PM 38.8522 -90.1972 231° Southwest 90 104 4,400 -48 Level Kansas City Center
Tue 07:01:08 PM 38.8375 -90.2239 235° Southwest 90 104 4,300  Descending Kansas City Center
Tue 07:02:10 PM 38.8167 -90.2519 226° Southwest 90 104 4,400  Climbing Kansas City Center
Tue 07:03:12 PM 38.8008 -90.2769 231° Southwest 90 104 4,300 -48 Descending Kansas City Center
Tue 07:04:14 PM 38.7861 -90.3025 234° Southwest 90 104 4,300  Level Kansas City Center
Tue 07:05:16 PM 38.7750 -90.3275 240° Southwest 87 100 4,300 48 Level Kansas City Center
Tue 07:06:18 PM 38.7592 -90.3489 226° Southwest 83 96 4,400 48 Climbing Kansas City Center
Tue 07:07:20 PM 38.7397 -90.3686 218° Southwest 86 99 4,400 48 Level Kansas City Center
Tue 07:08:22 PM 38.7206 -90.3972 229° Southwest 88 101 4,500 48 Climbing Kansas City Center
Tue 07:09:24 PM 38.7047 -90.4200 228° Southwest 89 102 4,500 -48 Level Kansas City Center
Tue 07:10:26 PM 38.6883 -90.4442 229° Southwest 89 102 4,400 -48 Descending Kansas City Center
Tue 07:11:28 PM 38.6706 -90.4750 234° Southwest 90 104 4,400  Level Kansas City Center
Tue 07:12:30 PM 38.6536 -90.4972 226° Southwest 90 104 4,400 -48 Level Kansas City Center
Tue 07:13:32 PM 38.6375 -90.5233 232° Southwest 90 104 4,300 -48 Descending Kansas City Center
Tue 07:14:34 PM 38.6225 -90.5497 234° Southwest 91 105 4,300 -48 Level Kansas City Center
Tue 07:15:36 PM 38.6075 -90.5739 232° Southwest 90 104 4,200  Descending Kansas City Center
Tue 07:16:38 PM 38.5933 -90.5994 235° Southwest 89 102 4,300 48 Climbing Kansas City Center
Tue 07:17:40 PM 38.5750 -90.6272 230° Southwest 87 100 4,300  Level Kansas City Center
Tue 07:18:42 PM 38.5603 -90.6517 232° Southwest 87 100 4,300 -48 Level Kansas City Center
Tue 07:19:44 PM 38.5442 -90.6758 230° Southwest 88 101 4,200 -48 Descending Kansas City Center
Tue 07:20:46 PM 38.5294 -90.7017 234° Southwest 89 102 4,200 48 Level Kansas City Center
Tue 07:21:48 PM 38.5150 -90.7242 231° Southwest 86 99 4,300 48 Climbing Kansas City Center
Tue 07:22:50 PM 38.5008 -90.7494 234° Southwest 86 99 4,300  Level Kansas City Center
Tue 07:23:53 PM 38.4847 -90.7789 235° Southwest 86 99 4,300 48 Level Kansas City Center
Tue 07:24:55 PM 38.4722 -90.8036 237° Southwest 84 97 4,400 48 Climbing Kansas City Center
Tue 07:25:57 PM 38.4592 -90.8264 234° Southwest 80 92 4,400  Level Kansas City Center
Tue 07:26:59 PM 38.4428 -90.8492 227° Southwest 85 98 4,400  Level Kansas City Center
Tue 07:28:01 PM 38.4258 -90.8717 226° Southwest 88 101 4,400  Level Kansas City Center
Tue 07:29:03 PM 38.4083 -90.8961 228° Southwest 90 104 4,400 48 Level Kansas City Center
Tue 07:30:05 PM 38.3864 -90.9225 223° Southwest 91 105 4,500  Climbing Kansas City Center
Tue 07:31:07 PM 38.3692 -90.9461 227° Southwest 91 105 4,400 -97 Descending Kansas City Center
Tue 07:32:09 PM 38.3525 -90.9731 232° Southwest 93 107 4,300  Descending Kansas City Center
Tue 07:33:11 PM 38.3372 -90.9967 230° Southwest 91 105 4,400 48 Climbing Kansas City Center
Tue 07:34:13 PM 38.3211 -91.0200 229° Southwest 89 102 4,400  Level Kansas City Center
Tue 07:35:15 PM 38.3042 -91.0433 227° Southwest 89 102 4,400  Level Kansas City Center
Tue 07:36:17 PM 38.2814 -91.0703 223° Southwest 92 106 4,400 -145 Level Kansas City Center
Tue 07:37:19 PM 38.2625 -91.0956 226° Southwest 97 112 4,100 -242 Descending Kansas City Center
Tue 07:38:21 PM 38.2450 -91.1214 229° Southwest 98 113 3,900 -242 Descending Kansas City Center
Tue 07:39:23 PM 38.2278 -91.1475 230° Southwest 97 112 3,600 -290 Descending Kansas City Center
Tue 07:40:25 PM 38.2092 -91.1736 228° Southwest 98 113 3,300 -194 Descending Kansas City Center
Tue 07:41:27 PM 38.1919 -91.1989 229° Southwest 96 110 3,200 -145 Descending Kansas City Center
Tue 07:42:29 PM 38.1700 -91.2283 227° Southwest 95 109 3,000 -194 Descending Kansas City Center

Login

Don't have an account? Register now (free) for customized features, flight alerts, and more!